sensor_id;sensor_type;location;lat;lon;timestamp;P1;durP1;ratioP1;P2;durP2;ratioP2
4414;SDS011;2220;42.670;23.398;2023-04-01T00:00:44;28.02;;;12.05;;
4414;SDS011;2220;42.670;23.398;2023-04-01T00:03:10;19.48;;;10.38;;
4414;SDS011;2220;42.670;23.398;2023-04-01T00:05:36;26.35;;;12.07;;
4414;SDS011;2220;42.670;23.398;2023-04-01T00:08:02;29.20;;;11.40;;
4414;SDS011;2220;42.670;23.398;2023-04-01T00:10:27;20.63;;;11.80;;
4414;SDS011;2220;42.670;23.398;2023-04-01T00:12:53;24.38;;;11.77;;
4414;SDS011;2220;42.670;23.398;2023-04-01T00:15:18;22.58;;;11.32;;
4414;SDS011;2220;42.670;23.398;2023-04-01T00:17:44;21.75;;;11.15;;
4414;SDS011;2220;42.670;23.398;2023-04-01T00:20:10;22.05;;;9.52;;
4414;SDS011;2220;42.670;23.398;2023-04-01T00:22:35;20.70;;;9.35;;
4414;SDS011;2220;42.670;23.398;2023-04-01T00:25:01;25.85;;;9.80;;
4414;SDS011;2220;42.670;23.398;2023-04-01T00:27:27;17.65;;;9.27;;
4414;SDS011;2220;42.670;23.398;2023-04-01T00:29:53;23.08;;;9.00;;
4414;SDS011;2220;42.670;23.398;2023-04-01T00:32:18;18.52;;;9.75;;
4414;SDS011;2220;42.670;23.398;2023-04-01T00:34:44;21.10;;;10.02;;
4414;SDS011;2220;42.670;23.398;2023-04-01T00:37:09;20.58;;;10.10;;
4414;SDS011;2220;42.670;23.398;2023-04-01T00:39:35;24.80;;;9.10;;
4414;SDS011;2220;42.670;23.398;2023-04-01T00:42:01;27.13;;;9.00;;
4414;SDS011;2220;42.670;23.398;2023-04-01T00:44:32;16.63;;;8.50;;
4414;SDS011;2220;42.670;23.398;2023-04-01T00:46:59;15.93;;;8.52;;
4414;SDS011;2220;42.670;23.398;2023-04-01T00:49:29;18.25;;;7.82;;
4414;SDS011;2220;42.670;23.398;2023-04-01T00:54:27;19.30;;;8.85;;
4414;SDS011;2220;42.670;23.398;2023-04-01T00:57:02;13.63;;;7.28;;
4414;SDS011;2220;42.670;23.398;2023-04-01T00:59:33;17.35;;;8.77;;
4414;SDS011;2220;42.670;23.398;2023-04-01T01:02:02;17.02;;;8.77;;
4414;SDS011;2220;42.670;23.398;2023-04-01T01:04:32;15.68;;;8.60;;
4414;SDS011;2220;42.670;23.398;2023-04-01T01:12:54;13.85;;;7.43;;
4414;SDS011;2220;42.670;23.398;2023-04-01T01:29:22;14.85;;;5.28;;
4414;SDS011;2220;42.670;23.398;2023-04-01T01:32:03;12.63;;;5.53;;
4414;SDS011;2220;42.670;23.398;2023-04-01T01:37:20;13.07;;;5.60;;
4414;SDS011;2220;42.670;23.398;2023-04-01T01:39:52;15.98;;;5.63;;
4414;SDS011;2220;42.670;23.398;2023-04-01T01:42:23;11.98;;;4.63;;
4414;SDS011;2220;42.670;23.398;2023-04-01T01:44:53;13.30;;;5.22;;
4414;SDS011;2220;42.670;23.398;2023-04-01T01:47:21;9.40;;;4.50;;
4414;SDS011;2220;42.670;23.398;2023-04-01T01:49:48;12.07;;;4.43;;
4414;SDS011;2220;42.670;23.398;2023-04-01T01:52:17;15.50;;;4.57;;
4414;SDS011;2220;42.670;23.398;2023-04-01T01:54:50;9.43;;;5.30;;
4414;SDS011;2220;42.670;23.398;2023-04-01T01:57:21;10.70;;;4.75;;
4414;SDS011;2220;42.670;23.398;2023-04-01T01:59:50;16.17;;;4.47;;
4414;SDS011;2220;42.670;23.398;2023-04-01T02:02:21;10.30;;;4.78;;
4414;SDS011;2220;42.670;23.398;2023-04-01T02:04:49;10.75;;;4.80;;
4414;SDS011;2220;42.670;23.398;2023-04-01T02:07:18;16.85;;;5.72;;
4414;SDS011;2220;42.670;23.398;2023-04-01T02:09:48;10.60;;;4.32;;
4414;SDS011;2220;42.670;23.398;2023-04-01T02:12:15;9.23;;;3.88;;
4414;SDS011;2220;42.670;23.398;2023-04-01T02:14:47;10.95;;;3.75;;
4414;SDS011;2220;42.670;23.398;2023-04-01T02:17:19;10.82;;;3.70;;
4414;SDS011;2220;42.670;23.398;2023-04-01T02:22:32;18.63;;;5.47;;
4414;SDS011;2220;42.670;23.398;2023-04-01T02:25:08;8.75;;;4.30;;
4414;SDS011;2220;42.670;23.398;2023-04-01T02:27:39;8.75;;;3.70;;
4414;SDS011;2220;42.670;23.398;2023-04-01T02:30:05;12.07;;;4.70;;
4414;SDS011;2220;42.670;23.398;2023-04-01T02:32:32;11.55;;;4.32;;
4414;SDS011;2220;42.670;23.398;2023-04-01T02:35:00;12.15;;;4.18;;
4414;SDS011;2220;42.670;23.398;2023-04-01T02:37:30;11.90;;;4.60;;
4414;SDS011;2220;42.670;23.398;2023-04-01T02:40:03;12.98;;;6.40;;
4414;SDS011;2220;42.670;23.398;2023-04-01T02:42:31;19.35;;;7.95;;
4414;SDS011;2220;42.670;23.398;2023-04-01T02:44:57;22.10;;;6.78;;
4414;SDS011;2220;42.670;23.398;2023-04-01T02:47:23;19.08;;;7.45;;
4414;SDS011;2220;42.670;23.398;2023-04-01T02:49:48;17.45;;;7.93;;
4414;SDS011;2220;42.670;23.398;2023-04-01T02:52:14;16.02;;;7.60;;
4414;SDS011;2220;42.670;23.398;2023-04-01T02:54:39;15.88;;;7.18;;
4414;SDS011;2220;42.670;23.398;2023-04-01T02:57:05;18.95;;;7.70;;
4414;SDS011;2220;42.670;23.398;2023-04-01T02:59:31;20.38;;;8.13;;
4414;SDS011;2220;42.670;23.398;2023-04-01T03:01:56;10.02;;;6.22;;
4414;SDS011;2220;42.670;23.398;2023-04-01T03:04:22;8.55;;;4.25;;
4414;SDS011;2220;42.670;23.398;2023-04-01T03:06:47;17.95;;;7.47;;
4414;SDS011;2220;42.670;23.398;2023-04-01T03:09:12;14.57;;;4.20;;
4414;SDS011;2220;42.670;23.398;2023-04-01T03:11:39;13.95;;;7.30;;
4414;SDS011;2220;42.670;23.398;2023-04-01T03:14:05;19.05;;;7.60;;
4414;SDS011;2220;42.670;23.398;2023-04-01T03:16:32;15.70;;;6.72;;
4414;SDS011;2220;42.670;23.398;2023-04-01T03:18:57;13.82;;;6.25;;
4414;SDS011;2220;42.670;23.398;2023-04-01T03:21:24;20.25;;;7.80;;
4414;SDS011;2220;42.670;23.398;2023-04-01T03:23:50;15.38;;;7.90;;
4414;SDS011;2220;42.670;23.398;2023-04-01T03:26:17;19.23;;;8.38;;
4414;SDS011;2220;42.670;23.398;2023-04-01T03:28:43;13.75;;;6.90;;
4414;SDS011;2220;42.670;23.398;2023-04-01T03:31:09;13.60;;;6.15;;
4414;SDS011;2220;42.670;23.398;2023-04-01T03:33:34;14.05;;;5.80;;
4414;SDS011;2220;42.670;23.398;2023-04-01T03:36:00;20.20;;;6.82;;
4414;SDS011;2220;42.670;23.398;2023-04-01T03:38:25;22.38;;;8.00;;
4414;SDS011;2220;42.670;23.398;2023-04-01T03:40:51;15.48;;;7.43;;
4414;SDS011;2220;42.670;23.398;2023-04-01T03:43:16;14.80;;;8.25;;
4414;SDS011;2220;42.670;23.398;2023-04-01T03:45:45;11.45;;;7.03;;
4414;SDS011;2220;42.670;23.398;2023-04-01T03:48:12;16.75;;;7.55;;
4414;SDS011;2220;42.670;23.398;2023-04-01T03:50:39;28.50;;;8.38;;
4414;SDS011;2220;42.670;23.398;2023-04-01T03:53:05;18.77;;;8.25;;
4414;SDS011;2220;42.670;23.398;2023-04-01T03:55:31;24.00;;;8.93;;
4414;SDS011;2220;42.670;23.398;2023-04-01T03:57:56;15.13;;;7.88;;
4414;SDS011;2220;42.670;23.398;2023-04-01T04:00:22;21.13;;;8.02;;
4414;SDS011;2220;42.670;23.398;2023-04-01T04:02:47;23.92;;;8.75;;
4414;SDS011;2220;42.670;23.398;2023-04-01T04:05:13;21.13;;;8.57;;
4414;SDS011;2220;42.670;23.398;2023-04-01T04:07:38;16.15;;;7.60;;
4414;SDS011;2220;42.670;23.398;2023-04-01T04:10:04;28.52;;;7.18;;
4414;SDS011;2220;42.670;23.398;2023-04-01T04:12:30;17.88;;;7.93;;
4414;SDS011;2220;42.670;23.398;2023-04-01T04:14:56;17.92;;;8.13;;
4414;SDS011;2220;42.670;23.398;2023-04-01T04:17:21;25.02;;;9.18;;
4414;SDS011;2220;42.670;23.398;2023-04-01T04:19:47;16.48;;;7.72;;
4414;SDS011;2220;42.670;23.398;2023-04-01T04:22:12;25.17;;;9.73;;
4414;SDS011;2220;42.670;23.398;2023-04-01T04:24:38;20.52;;;10.02;;
4414;SDS011;2220;42.670;23.398;2023-04-01T04:27:04;24.80;;;10.02;;
4414;SDS011;2220;42.670;23.398;2023-04-01T04:29:29;20.27;;;9.15;;
4414;SDS011;2220;42.670;23.398;2023-04-01T04:31:55;20.77;;;10.32;;
4414;SDS011;2220;42.670;23.398;2023-04-01T04:34:20;24.33;;;9.90;;
4414;SDS011;2220;42.670;23.398;2023-04-01T04:36:47;24.77;;;9.77;;
4414;SDS011;2220;42.670;23.398;2023-04-01T04:39:13;23.63;;;10.23;;
4414;SDS011;2220;42.670;23.398;2023-04-01T04:41:39;19.73;;;10.07;;
4414;SDS011;2220;42.670;23.398;2023-04-01T04:44:05;19.92;;;10.27;;
4414;SDS011;2220;42.670;23.398;2023-04-01T04:46:31;15.02;;;8.80;;
4414;SDS011;2220;42.670;23.398;2023-04-01T04:48:56;17.25;;;7.60;;
4414;SDS011;2220;42.670;23.398;2023-04-01T04:51:22;22.23;;;7.53;;
4414;SDS011;2220;42.670;23.398;2023-04-01T04:53:49;15.35;;;7.63;;
4414;SDS011;2220;42.670;23.398;2023-04-01T04:56:18;19.13;;;7.03;;
4414;SDS011;2220;42.670;23.398;2023-04-01T04:58:45;19.42;;;8.13;;
4414;SDS011;2220;42.670;23.398;2023-04-01T05:01:12;16.23;;;6.88;;
4414;SDS011;2220;42.670;23.398;2023-04-01T05:03:38;18.67;;;9.98;;
4414;SDS011;2220;42.670;23.398;2023-04-01T05:06:05;17.23;;;6.97;;
4414;SDS011;2220;42.670;23.398;2023-04-01T05:08:32;18.20;;;6.30;;
4414;SDS011;2220;42.670;23.398;2023-04-01T05:10:59;15.27;;;6.93;;
4414;SDS011;2220;42.670;23.398;2023-04-01T05:13:25;15.85;;;6.03;;
4414;SDS011;2220;42.670;23.398;2023-04-01T05:15:50;17.08;;;5.95;;
4414;SDS011;2220;42.670;23.398;2023-04-01T05:18:16;15.50;;;7.05;;
4414;SDS011;2220;42.670;23.398;2023-04-01T05:20:45;14.70;;;5.85;;
4414;SDS011;2220;42.670;23.398;2023-04-01T05:23:12;19.83;;;5.72;;
4414;SDS011;2220;42.670;23.398;2023-04-01T05:25:38;10.90;;;6.30;;
4414;SDS011;2220;42.670;23.398;2023-04-01T05:28:03;18.80;;;7.10;;
4414;SDS011;2220;42.670;23.398;2023-04-01T05:30:29;15.05;;;6.82;;
4414;SDS011;2220;42.670;23.398;2023-04-01T05:32:54;17.27;;;6.30;;
4414;SDS011;2220;42.670;23.398;2023-04-01T05:35:20;14.88;;;6.05;;
4414;SDS011;2220;42.670;23.398;2023-04-01T05:37:48;13.40;;;5.20;;
4414;SDS011;2220;42.670;23.398;2023-04-01T05:40:14;26.92;;;7.40;;
4414;SDS011;2220;42.670;23.398;2023-04-01T05:42:39;13.88;;;6.75;;
4414;SDS011;2220;42.670;23.398;2023-04-01T05:45:05;19.83;;;6.38;;
4414;SDS011;2220;42.670;23.398;2023-04-01T05:47:31;17.13;;;6.50;;
4414;SDS011;2220;42.670;23.398;2023-04-01T05:49:56;11.35;;;5.88;;
4414;SDS011;2220;42.670;23.398;2023-04-01T05:52:22;16.75;;;5.60;;
4414;SDS011;2220;42.670;23.398;2023-04-01T05:54:47;13.70;;;6.07;;
4414;SDS011;2220;42.670;23.398;2023-04-01T05:57:13;16.60;;;6.55;;
4414;SDS011;2220;42.670;23.398;2023-04-01T05:59:38;17.85;;;6.70;;
4414;SDS011;2220;42.670;23.398;2023-04-01T06:02:03;17.77;;;5.82;;
4414;SDS011;2220;42.670;23.398;2023-04-01T06:04:33;54.05;;;24.60;;
4414;SDS011;2220;42.670;23.398;2023-04-01T06:07:10;28.55;;;9.35;;
4414;SDS011;2220;42.670;23.398;2023-04-01T06:09:40;14.85;;;5.70;;
4414;SDS011;2220;42.670;23.398;2023-04-01T06:15:12;12.50;;;5.70;;
4414;SDS011;2220;42.670;23.398;2023-04-01T06:26:33;11.80;;;4.72;;
4414;SDS011;2220;42.670;23.398;2023-04-01T06:29:11;13.30;;;5.30;;
4414;SDS011;2220;42.670;23.398;2023-04-01T06:43:01;11.70;;;4.43;;
4414;SDS011;2220;42.670;23.398;2023-04-01T06:53:56;16.02;;;4.10;;
4414;SDS011;2220;42.670;23.398;2023-04-01T06:56:45;6.85;;;3.70;;
4414;SDS011;2220;42.670;23.398;2023-04-01T06:59:17;15.52;;;4.70;;
4414;SDS011;2220;42.670;23.398;2023-04-01T07:01:55;20.73;;;4.03;;
4414;SDS011;2220;42.670;23.398;2023-04-01T07:04:29;14.43;;;3.70;;
4414;SDS011;2220;42.670;23.398;2023-04-01T07:06:58;11.18;;;3.80;;
4414;SDS011;2220;42.670;23.398;2023-04-01T07:09:34;14.82;;;3.75;;
4414;SDS011;2220;42.670;23.398;2023-04-01T07:12:09;11.32;;;4.57;;
4414;SDS011;2220;42.670;23.398;2023-04-01T07:14:52;19.60;;;5.88;;
4414;SDS011;2220;42.670;23.398;2023-04-01T07:17:20;12.65;;;5.68;;
4414;SDS011;2220;42.670;23.398;2023-04-01T07:22:31;13.13;;;4.10;;
4414;SDS011;2220;42.670;23.398;2023-04-01T07:25:15;14.27;;;6.15;;
4414;SDS011;2220;42.670;23.398;2023-04-01T07:27:43;10.77;;;3.63;;
4414;SDS011;2220;42.670;23.398;2023-04-01T07:30:18;14.63;;;4.00;;
4414;SDS011;2220;42.670;23.398;2023-04-01T07:33:00;10.73;;;3.72;;
4414;SDS011;2220;42.670;23.398;2023-04-01T07:43:56;6.70;;;2.65;;
4414;SDS011;2220;42.670;23.398;2023-04-01T07:49:45;8.90;;;3.05;;
4414;SDS011;2220;42.670;23.398;2023-04-01T07:55:11;17.27;;;3.60;;
4414;SDS011;2220;42.670;23.398;2023-04-01T07:57:45;7.43;;;2.78;;
4414;SDS011;2220;42.670;23.398;2023-04-01T08:00:43;7.72;;;2.60;;
4414;SDS011;2220;42.670;23.398;2023-04-01T08:06:00;11.57;;;2.50;;
4414;SDS011;2220;42.670;23.398;2023-04-01T08:08:44;8.18;;;2.42;;
4414;SDS011;2220;42.670;23.398;2023-04-01T08:11:21;11.18;;;3.33;;
4414;SDS011;2220;42.670;23.398;2023-04-01T08:16:50;7.03;;;3.45;;
4414;SDS011;2220;42.670;23.398;2023-04-01T08:22:20;10.43;;;3.25;;
4414;SDS011;2220;42.670;23.398;2023-04-01T08:24:51;7.97;;;3.28;;
4414;SDS011;2220;42.670;23.398;2023-04-01T08:30:06;10.20;;;3.47;;
4414;SDS011;2220;42.670;23.398;2023-04-01T08:32:44;8.38;;;3.47;;
4414;SDS011;2220;42.670;23.398;2023-04-01T08:38:24;13.07;;;2.60;;
4414;SDS011;2220;42.670;23.398;2023-04-01T08:40:57;10.45;;;3.00;;
4414;SDS011;2220;42.670;23.398;2023-04-01T09:11:32;9.80;;;2.92;;
4414;SDS011;2220;42.670;23.398;2023-04-01T09:16:53;10.32;;;3.25;;
4414;SDS011;2220;42.670;23.398;2023-04-01T09:19:28;4.88;;;2.67;;
4414;SDS011;2220;42.670;23.398;2023-04-01T09:30:46;9.73;;;2.95;;
4414;SDS011;2220;42.670;23.398;2023-04-01T09:36:43;16.48;;;3.05;;
4414;SDS011;2220;42.670;23.398;2023-04-01T09:39:18;8.45;;;2.42;;
4414;SDS011;2220;42.670;23.398;2023-04-01T09:45:14;9.02;;;3.10;;
4414;SDS011;2220;42.670;23.398;2023-04-01T09:48:00;8.57;;;2.83;;
4414;SDS011;2220;42.670;23.398;2023-04-01T10:02:18;6.90;;;2.28;;
4414;SDS011;2220;42.670;23.398;2023-04-01T10:14:16;8.35;;;3.58;;
4414;SDS011;2220;42.670;23.398;2023-04-01T10:27:28;8.27;;;3.67;;
4414;SDS011;2220;42.670;23.398;2023-04-01T10:33:22;24.95;;;5.30;;
4414;SDS011;2220;42.670;23.398;2023-04-01T11:09:28;13.90;;;3.45;;
4414;SDS011;2220;42.670;23.398;2023-04-01T11:15:01;13.27;;;4.00;;
4414;SDS011;2220;42.670;23.398;2023-04-01T11:32:18;14.02;;;2.88;;
4414;SDS011;2220;42.670;23.398;2023-04-01T11:52:29;4.18;;;1.00;;
4414;SDS011;2220;42.670;23.398;2023-04-01T12:06:12;8.07;;;1.85;;
4414;SDS011;2220;42.670;23.398;2023-04-01T12:12:30;8.98;;;1.98;;
4414;SDS011;2220;42.670;23.398;2023-04-01T12:34:31;8.90;;;3.88;;
4414;SDS011;2220;42.670;23.398;2023-04-01T12:36:34;8.20;;;3.22;;
4414;SDS011;2220;42.670;23.398;2023-04-01T12:39:21;7.17;;;3.47;;
4414;SDS011;2220;42.670;23.398;2023-04-01T12:49:56;5.05;;;3.85;;
4414;SDS011;2220;42.670;23.398;2023-04-01T12:52:48;10.13;;;4.40;;
4414;SDS011;2220;42.670;23.398;2023-04-01T12:55:42;10.07;;;5.30;;
4414;SDS011;2220;42.670;23.398;2023-04-01T13:11:54;11.80;;;4.25;;
4414;SDS011;2220;42.670;23.398;2023-04-01T13:22:05;7.10;;;2.45;;
4414;SDS011;2220;42.670;23.398;2023-04-01T13:27:40;3.97;;;1.80;;
4414;SDS011;2220;42.670;23.398;2023-04-01T13:36:10;7.13;;;2.47;;
4414;SDS011;2220;42.670;23.398;2023-04-01T13:38:50;4.78;;;2.00;;
4414;SDS011;2220;42.670;23.398;2023-04-01T13:43:52;6.45;;;2.38;;
4414;SDS011;2220;42.670;23.398;2023-04-01T13:46:39;3.85;;;2.33;;
4414;SDS011;2220;42.670;23.398;2023-04-01T13:51:52;8.27;;;4.38;;
4414;SDS011;2220;42.670;23.398;2023-04-01T14:09:03;10.70;;;4.13;;
4414;SDS011;2220;42.670;23.398;2023-04-01T14:19:49;8.55;;;3.72;;
4414;SDS011;2220;42.670;23.398;2023-04-01T14:27:54;7.78;;;3.83;;
4414;SDS011;2220;42.670;23.398;2023-04-01T14:30:50;11.32;;;2.80;;
4414;SDS011;2220;42.670;23.398;2023-04-01T14:33:47;4.85;;;2.50;;
4414;SDS011;2220;42.670;23.398;2023-04-01T14:36:29;4.07;;;2.80;;
4414;SDS011;2220;42.670;23.398;2023-04-01T14:39:08;3.17;;;2.38;;
4414;SDS011;2220;42.670;23.398;2023-04-01T14:44:36;6.00;;;3.22;;
4414;SDS011;2220;42.670;23.398;2023-04-01T14:50:13;8.75;;;2.40;;
4414;SDS011;2220;42.670;23.398;2023-04-01T14:52:44;4.95;;;2.30;;
4414;SDS011;2220;42.670;23.398;2023-04-01T14:55:26;6.20;;;2.30;;
4414;SDS011;2220;42.670;23.398;2023-04-01T15:17:36;6.03;;;2.90;;
4414;SDS011;2220;42.670;23.398;2023-04-01T15:25:27;8.38;;;3.70;;
4414;SDS011;2220;42.670;23.398;2023-04-01T15:33:32;6.88;;;3.58;;
4414;SDS011;2220;42.670;23.398;2023-04-01T15:36:19;10.27;;;3.40;;
4414;SDS011;2220;42.670;23.398;2023-04-01T15:46:56;9.35;;;4.10;;
4414;SDS011;2220;42.670;23.398;2023-04-01T15:49:34;8.70;;;4.22;;
4414;SDS011;2220;42.670;23.398;2023-04-01T15:52:10;6.60;;;3.67;;
4414;SDS011;2220;42.670;23.398;2023-04-01T15:54:47;8.07;;;4.60;;
4414;SDS011;2220;42.670;23.398;2023-04-01T16:11:16;5.93;;;2.75;;
4414;SDS011;2220;42.670;23.398;2023-04-01T16:22:16;2.95;;;2.72;;
4414;SDS011;2220;42.670;23.398;2023-04-01T16:27:40;4.40;;;3.15;;
4414;SDS011;2220;42.670;23.398;2023-04-01T16:30:26;2.00;;;1.90;;
4414;SDS011;2220;42.670;23.398;2023-04-01T16:35:59;23.60;;;13.75;;
4414;SDS011;2220;42.670;23.398;2023-04-01T16:41:28;1.88;;;1.77;;
4414;SDS011;2220;42.670;23.398;2023-04-01T16:43:58;5.53;;;3.38;;
4414;SDS011;2220;42.670;23.398;2023-04-01T16:57:03;4.30;;;2.08;;
4414;SDS011;2220;42.670;23.398;2023-04-01T17:05:13;4.25;;;1.95;;
4414;SDS011;2220;42.670;23.398;2023-04-01T17:07:59;3.20;;;1.60;;
4414;SDS011;2220;42.670;23.398;2023-04-01T17:25:49;2.80;;;1.48;;
4414;SDS011;2220;42.670;23.398;2023-04-01T17:33:53;1.13;;;1.02;;
4414;SDS011;2220;42.670;23.398;2023-04-01T17:42:07;1.77;;;0.80;;
4414;SDS011;2220;42.670;23.398;2023-04-01T17:44:50;1.50;;;1.40;;
4414;SDS011;2220;42.670;23.398;2023-04-01T17:50:07;2.25;;;1.52;;
4414;SDS011;2220;42.670;23.398;2023-04-01T18:07:04;4.07;;;1.92;;
4414;SDS011;2220;42.670;23.398;2023-04-01T18:15:53;2.50;;;2.30;;
4414;SDS011;2220;42.670;23.398;2023-04-01T18:21:50;2.25;;;2.15;;
4414;SDS011;2220;42.670;23.398;2023-04-01T18:27:50;2.40;;;2.20;;
4414;SDS011;2220;42.670;23.398;2023-04-01T18:30:31;1.95;;;1.80;;
4414;SDS011;2220;42.670;23.398;2023-04-01T18:33:05;2.08;;;1.98;;
4414;SDS011;2220;42.670;23.398;2023-04-01T18:38:16;2.10;;;2.00;;
4414;SDS011;2220;42.670;23.398;2023-04-01T18:43:42;2.70;;;2.60;;
4414;SDS011;2220;42.670;23.398;2023-04-01T18:46:16;2.83;;;2.63;;
4414;SDS011;2220;42.670;23.398;2023-04-01T18:48:57;2.08;;;1.98;;
4414;SDS011;2220;42.670;23.398;2023-04-01T18:57:01;1.90;;;1.80;;
4414;SDS011;2220;42.670;23.398;2023-04-01T18:59:55;2.10;;;2.00;;
4414;SDS011;2220;42.670;23.398;2023-04-01T19:10:14;2.58;;;2.38;;
4414;SDS011;2220;42.670;23.398;2023-04-01T19:40:04;1.40;;;1.30;;
4414;SDS011;2220;42.670;23.398;2023-04-01T19:43:10;1.00;;;1.00;;
4414;SDS011;2220;42.670;23.398;2023-04-01T19:48:49;0.73;;;0.73;;
4414;SDS011;2220;42.670;23.398;2023-04-01T19:51:23;0.90;;;0.90;;
4414;SDS011;2220;42.670;23.398;2023-04-01T19:54:43;0.65;;;0.65;;
4414;SDS011;2220;42.670;23.398;2023-04-01T19:59:33;3.97;;;0.82;;
4414;SDS011;2220;42.670;23.398;2023-04-01T20:02:16;1.00;;;1.00;;
4414;SDS011;2220;42.670;23.398;2023-04-01T20:04:45;1.13;;;1.13;;
4414;SDS011;2220;42.670;23.398;2023-04-01T20:15:37;2.15;;;0.82;;
4414;SDS011;2220;42.670;23.398;2023-04-01T20:18:12;1.70;;;1.35;;
4414;SDS011;2220;42.670;23.398;2023-04-01T20:20:58;0.93;;;0.90;;
4414;SDS011;2220;42.670;23.398;2023-04-01T20:26:45;1.00;;;1.00;;
4414;SDS011;2220;42.670;23.398;2023-04-01T20:37:44;1.35;;;1.23;;
4414;SDS011;2220;42.670;23.398;2023-04-01T20:45:44;1.00;;;1.00;;
4414;SDS011;2220;42.670;23.398;2023-04-01T20:48:30;0.90;;;0.90;;
4414;SDS011;2220;42.670;23.398;2023-04-01T20:51:29;1.33;;;1.00;;
4414;SDS011;2220;42.670;23.398;2023-04-01T20:57:09;0.95;;;0.93;;
4414;SDS011;2220;42.670;23.398;2023-04-01T21:07:52;1.88;;;1.77;;
4414;SDS011;2220;42.670;23.398;2023-04-01T21:10:34;2.67;;;2.40;;
4414;SDS011;2220;42.670;23.398;2023-04-01T21:13:04;1.80;;;1.70;;
4414;SDS011;2220;42.670;23.398;2023-04-01T21:15:55;3.55;;;1.67;;
4414;SDS011;2220;42.670;23.398;2023-04-01T21:18:27;1.60;;;1.50;;
4414;SDS011;2220;42.670;23.398;2023-04-01T21:26:56;3.08;;;2.45;;
4414;SDS011;2220;42.670;23.398;2023-04-01T21:35:00;2.45;;;2.22;;
4414;SDS011;2220;42.670;23.398;2023-04-01T21:38:06;2.17;;;2.07;;
4414;SDS011;2220;42.670;23.398;2023-04-01T21:56:24;4.13;;;3.45;;
4414;SDS011;2220;42.670;23.398;2023-04-01T22:07:25;2.75;;;2.47;;
4414;SDS011;2220;42.670;23.398;2023-04-01T22:12:49;3.28;;;2.75;;
4414;SDS011;2220;42.670;23.398;2023-04-01T22:15:56;3.83;;;2.63;;
4414;SDS011;2220;42.670;23.398;2023-04-01T22:32:33;2.17;;;1.63;;
4414;SDS011;2220;42.670;23.398;2023-04-01T22:42:44;1.23;;;1.17;;
4414;SDS011;2220;42.670;23.398;2023-04-01T22:48:56;1.98;;;1.60;;
4414;SDS011;2220;42.670;23.398;2023-04-01T22:54:23;5.40;;;3.33;;
4414;SDS011;2220;42.670;23.398;2023-04-01T22:57:10;10.95;;;2.72;;
4414;SDS011;2220;42.670;23.398;2023-04-01T22:59:48;7.25;;;2.50;;
4414;SDS011;2220;42.670;23.398;2023-04-01T23:02:24;6.03;;;2.55;;
4414;SDS011;2220;42.670;23.398;2023-04-01T23:04:54;2.60;;;1.60;;
4414;SDS011;2220;42.670;23.398;2023-04-01T23:10:46;3.42;;;1.23;;
4414;SDS011;2220;42.670;23.398;2023-04-01T23:13:21;1.90;;;1.25;;
4414;SDS011;2220;42.670;23.398;2023-04-01T23:15:52;1.15;;;0.95;;
4414;SDS011;2220;42.670;23.398;2023-04-01T23:18:21;0.90;;;0.70;;
4414;SDS011;2220;42.670;23.398;2023-04-01T23:26:17;2.08;;;1.13;;
4414;SDS011;2220;42.670;23.398;2023-04-01T23:28:54;4.82;;;0.85;;
4414;SDS011;2220;42.670;23.398;2023-04-01T23:31:31;0.95;;;0.82;;
4414;SDS011;2220;42.670;23.398;2023-04-01T23:36:43;1.27;;;1.02;;
4414;SDS011;2220;42.670;23.398;2023-04-01T23:44:51;2.33;;;0.68;;
4414;SDS011;2220;42.670;23.398;2023-04-01T23:47:21;2.08;;;0.70;;
4414;SDS011;2220;42.670;23.398;2023-04-01T23:49:58;1.83;;;0.93;;
4414;SDS011;2220;42.670;23.398;2023-04-01T23:52:30;3.45;;;0.65;;
4414;SDS011;2220;42.670;23.398;2023-04-01T23:55:04;0.22;;;0.22;;
4414;SDS011;2220;42.670;23.398;2023-04-01T23:57:38;1.65;;;0.65;;
